Time;durP1;ratioP1;P1;durP2;ratioP2;P2;SDS_P1;SDS_P2;PMS_P1;PMS_P2;Temp;Humidity;BMP_temperature;BMP_pressure;BME280_temperature;BME280_humidity;BME280_pressure;Samples;Min_cycle;Max_cycle;Signal;HPM_P1;HPM_P2
2021/11/07 00:01:51;;;;;;;63.33;30.20;;;;;;;3.38;76.49;101462.44;1403449;92;23223;-92
2021/11/07 00:07:24;;;;;;;57.70;27.73;;;;;;;3.52;76.43;101457.37;1417370;92;21715;-88
2021/11/07 00:09:49;;;;;;;62.03;30.07;;;;;;;3.58;76.36;101457.05;1390548;92;22032;-90
2021/11/07 00:12:21;;;;;;;47.90;25.20;;;;;;;3.64;76.54;101444.59;1402787;92;21899;-88
2021/11/07 00:14:48;;;;;;;47.33;24.40;;;;;;;3.71;76.44;101439.41;1397075;93;22697;-89
2021/11/07 00:17:19;;;;;;;42.30;22.47;;;;;;;3.78;76.33;101423.78;1401239;93;21893;-88
2021/11/07 00:19:48;;;;;;;39.50;21.67;;;;;;;3.86;76.13;101411.14;1412639;91;21739;-88
2021/11/07 00:24:50;;;;;;;42.83;24.87;;;;;;;3.95;75.75;101402.78;1389246;93;22874;-88
2021/11/07 00:27:23;;;;;;;41.93;22.80;;;;;;;3.99;75.63;101405.61;1389085;94;21592;-88
2021/11/07 00:37:50;;;;;;;34.23;19.03;;;;;;;3.98;76.11;101376.43;1380772;94;21994;-88
2021/11/07 00:43:05;;;;;;;30.13;18.63;;;;;;;4.10;75.95;101381.47;1403885;93;21755;-87
2021/11/07 00:48:12;;;;;;;37.73;20.97;;;;;;;4.25;76.33;101383.72;1381270;93;21858;-86
2021/11/07 00:50:52;;;;;;;27.83;18.47;;;;;;;4.30;76.22;101381.70;1380831;93;23049;-86
2021/11/07 00:56:01;;;;;;;33.67;18.43;;;;;;;4.27;76.06;101380.56;1380027;94;21916;-87
2021/11/07 00:58:21;;;;;;;36.70;18.20;;;;;;;4.32;76.24;101400.82;1379535;94;22059;-88
2021/11/07 01:01:02;;;;;;;35.07;19.43;;;;;;;4.34;76.00;101390.23;1380689;94;22816;-89
2021/11/07 01:03:21;;;;;;;34.60;20.50;;;;;;;4.35;75.91;101388.02;1361787;94;21987;-88
2021/11/07 01:05:48;;;;;;;33.33;17.80;;;;;;;4.35;76.50;101364.42;1393666;93;22074;-88
2021/11/07 01:08:15;;;;;;;31.73;18.43;;;;;;;4.35;76.50;101364.42;1379457;95;22011;-90
2021/11/07 01:10:42;;;;;;;31.43;17.43;;;;;;;4.41;76.77;101353.13;1378944;92;22958;-90
2021/11/07 01:13:10;;;;;;;35.90;18.70;;;;;;;4.46;77.03;101348.48;1411350;92;21891;-91
2021/11/07 01:15:37;;;;;;;34.17;18.43;;;;;;;4.50;76.95;101341.28;1413814;92;21886;-90
2021/11/07 01:18:07;;;;;;;32.63;18.33;;;;;;;4.59;76.33;101338.14;1403103;92;22005;-88
2021/11/07 01:20:34;;;;;;;31.27;17.70;;;;;;;4.63;76.68;101332.24;1409928;92;22188;-89
2021/11/07 01:25:49;;;;;;;27.80;16.37;;;;;;;4.66;76.61;101323.77;1411838;92;23089;-89
2021/11/07 01:28:08;;;;;;;28.00;16.07;;;;;;;4.66;76.99;101300.60;1388516;94;22031;-89
2021/11/07 01:30:43;;;;;;;32.33;17.93;;;;;;;4.66;76.99;101300.60;1407292;92;21828;-89
2021/11/07 01:33:14;;;;;;;31.40;18.27;;;;;;;4.69;76.92;101289.94;1412638;92;22106;-89
2021/11/07 01:35:43;;;;;;;28.03;17.60;;;;;;;4.73;76.80;101292.77;1396068;92;22355;-89
2021/11/07 01:40:40;;;;;;;28.03;16.47;;;;;;;4.84;76.45;101298.72;1394994;92;22206;-89
2021/11/07 01:43:06;;;;;;;28.93;17.83;;;;;;;4.83;76.36;101283.89;1393417;94;22235;-88
2021/11/07 01:45:49;;;;;;;32.63;16.47;;;;;;;4.96;76.19;101294.89;1416975;92;22140;-89
2021/11/07 01:48:20;;;;;;;27.60;14.87;;;;;;;5.00;75.91;101280.50;1420173;90;23153;-90
2021/11/07 01:50:56;;;;;;;26.63;14.87;;;;;;;5.04;76.02;101280.50;1415072;91;22144;-90
2021/11/07 01:53:30;;;;;;;22.87;15.53;;;;;;;5.10;75.79;101269.62;1417253;92;22196;-90
2021/11/07 01:56:00;;;;;;;29.87;17.83;;;;;;;5.12;75.93;101266.42;1418473;92;22272;-90
2021/11/07 01:58:29;;;;;;;24.40;14.47;;;;;;;5.16;75.65;101276.66;1409246;92;22135;-91
2021/11/07 02:00:57;;;;;;;26.43;16.90;;;;;;;5.20;75.38;101279.94;1418613;92;21435;-90
2021/11/07 02:03:25;;;;;;;26.20;16.30;;;;;;;5.23;75.24;101271.88;1399525;92;22086;-87
2021/11/07 02:05:53;;;;;;;24.40;14.37;;;;;;;5.27;74.99;101273.87;1389323;92;23201;-87
2021/11/07 02:08:22;;;;;;;27.97;15.73;;;;;;;5.31;74.89;101273.58;1410459;90;23285;-87
2021/11/07 02:10:52;;;;;;;26.53;16.03;;;;;;;5.28;74.36;101268.98;1395114;93;22306;-87
2021/11/07 02:13:19;;;;;;;25.07;16.10;;;;;;;5.22;74.50;101267.58;1396790;92;23190;-87
2021/11/07 02:15:46;;;;;;;25.27;14.80;;;;;;;5.14;75.59;101269.81;1407495;92;23476;-88
2021/11/07 02:18:16;;;;;;;27.70;15.07;;;;;;;5.10;75.48;101274.41;1399250;93;24292;-88
2021/11/07 02:20:48;;;;;;;24.83;15.60;;;;;;;5.12;75.71;101278.23;1401004;93;22362;-87
2021/11/07 02:23:20;;;;;;;27.47;16.83;;;;;;;5.11;76.17;101279.18;1404938;93;22136;-86
2021/11/07 02:25:50;;;;;;;25.07;16.73;;;;;;;5.13;76.44;101282.56;1398558;93;22241;-87
2021/11/07 02:28:30;;;;;;;24.10;16.23;;;;;;;5.14;76.68;101276.38;1402031;92;23327;-88
2021/11/07 02:31:00;;;;;;;25.60;17.10;;;;;;;5.11;76.82;101283.11;1378922;93;22289;-88
2021/11/07 02:33:29;;;;;;;28.17;16.57;;;;;;;5.06;77.13;101291.25;1431264;92;22066;-88
2021/11/07 02:35:56;;;;;;;25.97;16.30;;;;;;;5.09;76.85;101289.78;1425305;92;22698;-87
2021/11/07 02:38:23;;;;;;;26.00;16.53;;;;;;;5.02;76.73;101279.73;1398273;93;22168;-87
2021/11/07 02:40:51;;;;;;;23.20;16.00;;;;;;;5.02;76.73;101279.73;1402393;93;21473;-89
2021/11/07 02:43:20;;;;;;;22.23;13.80;;;;;;;4.98;76.66;101276.45;1405858;93;22323;-88
2021/11/07 02:45:47;;;;;;;25.50;14.93;;;;;;;4.97;76.41;101268.19;1407196;93;22131;-87
2021/11/07 02:48:14;;;;;;;25.37;15.63;;;;;;;5.01;76.44;101254.44;1404705;93;23145;-88
2021/11/07 02:50:41;;;;;;;24.93;15.27;;;;;;;5.04;76.72;101243.77;1402221;93;22746;-87
2021/11/07 02:53:08;;;;;;;28.27;14.90;;;;;;;5.09;77.20;101242.99;1416903;91;22168;-88
2021/11/07 02:55:36;;;;;;;27.87;14.87;;;;;;;5.15;77.01;101236.06;1402964;93;22132;-87
2021/11/07 02:58:04;;;;;;;20.73;14.70;;;;;;;5.18;77.20;101228.03;1415790;92;22078;-85
2021/11/07 03:00:34;;;;;;;20.93;14.53;;;;;;;5.18;77.39;101213.59;1417479;92;22102;-86
2021/11/07 03:03:01;;;;;;;20.80;13.67;;;;;;;5.20;77.05;101213.02;1383614;93;22272;-85
2021/11/07 03:05:31;;;;;;;19.27;13.13;;;;;;;5.22;76.99;101209.84;1383817;93;22197;-86
2021/11/07 03:07:59;;;;;;;22.50;14.27;;;;;;;5.28;76.68;101205.98;1379322;91;22175;-86
2021/11/07 03:10:30;;;;;;;19.70;13.53;;;;;;;5.34;76.80;101217.42;1415970;92;23106;-86
2021/11/07 03:13:10;;;;;;;27.87;15.13;;;;;;;5.33;76.74;101199.52;1414459;91;22205;-88
2021/11/07 03:15:39;;;;;;;;;;;;;;;5.36;76.53;101212.45;1421231;92;22175;-88
2021/11/07 03:18:09;;;;;;;19.57;12.50;;;;;;;5.30;76.46;101211.52;1405183;92;20331;-89
2021/11/07 03:20:36;;;;;;;24.00;15.48;;;;;;;5.29;76.23;101207.66;1400491;93;22116;-90
2021/11/07 03:23:05;;;;;;;23.13;13.47;;;;;;;5.30;76.25;101197.09;1397573;93;21666;-89
2021/11/07 03:25:33;;;;;;;19.53;12.73;;;;;;;5.29;76.45;101188.81;1404578;93;22146;-89
2021/11/07 03:28:02;;;;;;;18.03;12.53;;;;;;;5.25;76.96;101197.83;1401124;93;22145;-89
2021/11/07 03:33:09;;;;;;;18.23;12.97;;;;;;;5.08;77.13;101198.86;1396855;91;23345;-89
2021/11/07 03:35:29;;;;;;;21.77;13.80;;;;;;;5.09;77.08;101197.08;1413841;92;22280;-90
2021/11/07 03:37:56;;;;;;;20.07;12.70;;;;;;;5.10;77.57;101206.66;1427556;92;22212;-89
2021/11/07 03:40:26;;;;;;;18.53;13.53;;;;;;;5.11;77.25;101193.42;1397184;91;22257;-90
2021/11/07 03:42:54;;;;;;;22.58;14.68;;;;;;;5.13;77.33;101185.00;1422857;92;22122;-91
2021/11/07 03:45:21;;;;;;;22.60;14.03;;;;;;;5.15;77.08;101183.58;1427351;92;21377;-91
2021/11/07 03:47:48;;;;;;;23.25;14.65;;;;;;;5.15;77.15;101183.58;1423765;92;22094;-90
2021/11/07 03:50:17;;;;;;;22.10;14.23;;;;;;;5.19;77.30;101192.97;1415996;92;22102;-89
2021/11/07 03:52:45;;;;;;;21.27;14.37;;;;;;;5.24;77.71;101178.26;1420316;91;22339;-88
2021/11/07 03:55:12;;;;;;;23.53;15.10;;;;;;;5.24;77.66;101171.70;1412011;92;22217;-88
2021/11/07 03:57:40;;;;;;;24.67;16.33;;;;;;;5.23;77.45;101190.98;1401104;92;22176;-87
2021/11/07 04:00:11;;;;;;;22.97;15.43;;;;;;;5.26;77.43;101175.05;1400334;92;22354;-87
2021/11/07 04:02:40;;;;;;;25.57;15.80;;;;;;;5.27;77.78;101167.56;1388521;93;23159;-86
2021/11/07 04:05:09;;;;;;;21.87;15.00;;;;;;;5.24;77.78;101168.60;1381469;93;22114;-86
2021/11/07 04:07:39;;;;;;;24.30;15.40;;;;;;;5.18;77.66;101169.82;1374236;93;23257;-85
2021/11/07 04:10:09;;;;;;;21.53;14.23;;;;;;;5.20;77.72;101157.90;1382238;93;22330;-87
2021/11/07 04:12:39;;;;;;;25.35;16.55;;;;;;;5.21;77.57;101156.98;1412982;91;22117;-88
2021/11/07 04:15:08;;;;;;;26.17;16.90;;;;;;;5.15;78.17;101163.45;1418148;92;21406;-88
2021/11/07 04:17:38;;;;;;;22.57;14.83;;;;;;;5.15;78.17;101163.45;1403372;92;21348;-87
2021/11/07 04:20:08;;;;;;;26.47;16.30;;;;;;;5.18;77.86;101170.30;1421645;92;22124;-88
2021/11/07 04:22:37;;;;;;;22.80;16.55;;;;;;;5.18;77.97;101173.76;1400102;92;22349;-87
2021/11/07 04:25:06;;;;;;;19.67;13.87;;;;;;;5.19;77.99;101168.87;1412047;92;21414;-88
2021/11/07 04:27:34;;;;;;;22.57;15.73;;;;;;;5.16;78.37;101164.29;1412280;93;22123;-88
2021/11/07 04:30:03;;;;;;;24.93;16.17;;;;;;;5.18;78.36;101165.88;1395543;93;23135;-87
2021/11/07 04:32:33;;;;;;;22.27;14.87;;;;;;;5.25;78.53;101158.94;1401127;93;22087;-86
2021/11/07 04:35:03;;;;;;;25.93;16.27;;;;;;;5.28;78.03;101152.19;1379101;93;22191;-86
2021/11/07 04:37:32;;;;;;;24.10;15.50;;;;;;;5.28;78.40;101146.94;1396876;93;22070;-87
2021/11/07 04:40:01;;;;;;;26.37;16.43;;;;;;;5.18;78.41;101140.95;1396646;93;22200;-88
2021/11/07 04:42:28;;;;;;;25.03;16.37;;;;;;;5.17;78.34;101139.72;1402911;93;22202;-89
2021/11/07 04:44:57;;;;;;;21.97;15.10;;;;;;;5.22;78.35;101135.04;1404911;93;22279;-87
2021/11/07 04:47:24;;;;;;;23.93;14.30;;;;;;;5.28;78.67;101125.94;1404315;93;24205;-92
2021/11/07 04:49:54;;;;;;;25.57;16.00;;;;;;;5.32;78.81;101116.47;1401427;93;23232;-91
2021/11/07 04:52:21;;;;;;;24.80;17.57;;;;;;;5.36;78.89;101095.64;1402369;93;22144;-89
2021/11/07 04:54:49;;;;;;;25.17;17.73;;;;;;;5.35;78.88;101079.53;1385321;93;22146;-92
2021/11/07 04:57:17;;;;;;;26.10;16.60;;;;;;;5.35;78.74;101073.41;1398832;93;22213;-92
2021/11/07 04:59:45;;;;;;;24.90;16.60;;;;;;;5.38;78.66;101074.08;1394226;93;22144;-93
2021/11/07 05:02:12;;;;;;;26.03;18.20;;;;;;;5.42;78.97;101087.37;1384077;93;22190;-92
2021/11/07 05:04:41;;;;;;;25.00;16.77;;;;;;;5.33;79.26;101082.71;1400987;93;22168;-89
2021/11/07 05:07:10;;;;;;;30.87;18.57;;;;;;;5.33;79.26;101082.71;1401045;93;21475;-89
2021/11/07 05:09:38;;;;;;;22.07;15.80;;;;;;;5.32;79.58;101071.85;1405116;93;22862;-89
2021/11/07 05:12:06;;;;;;;26.33;18.13;;;;;;;5.36;79.59;101066.77;1398463;93;21471;-88
2021/11/07 05:14:33;;;;;;;25.07;17.43;;;;;;;5.38;79.54;101075.39;1401998;93;22155;-88
2021/11/07 05:17:00;;;;;;;28.40;18.33;;;;;;;5.40;80.10;101074.80;1390491;93;23146;-89
2021/11/07 05:19:27;;;;;;;29.97;18.43;;;;;;;5.45;79.72;101068.43;1400361;93;22813;-89
2021/11/07 05:21:58;;;;;;;30.27;19.43;;;;;;;5.43;80.19;101081.16;1391746;93;23272;-88
2021/11/07 05:24:25;;;;;;;23.47;17.42;;;;;;;5.41;80.46;101077.81;1382993;93;22332;-90
2021/11/07 05:26:52;;;;;;;26.93;17.57;;;;;;;5.39;80.76;101069.19;1398037;93;21398;-88
2021/11/07 05:29:19;;;;;;;25.93;16.93;;;;;;;5.40;80.51;101065.61;1400928;93;22177;-88
2021/11/07 05:31:47;;;;;;;26.60;18.23;;;;;;;5.38;80.89;101063.58;1397465;93;22478;-89
2021/11/07 05:34:14;;;;;;;25.30;17.73;;;;;;;5.33;81.40;101060.40;1401883;93;21465;-87
2021/11/07 05:36:44;;;;;;;25.90;17.47;;;;;;;5.33;80.51;101061.71;1400957;93;21444;-89
2021/11/07 05:39:12;;;;;;;25.43;18.23;;;;;;;5.33;80.51;101061.71;1393009;92;21465;-85
2021/11/07 05:41:40;;;;;;;25.83;18.60;;;;;;;5.39;80.86;101061.79;1384457;92;22298;-86
2021/11/07 05:44:08;;;;;;;24.83;17.83;;;;;;;5.39;81.69;101072.29;1405580;93;22144;-86
2021/11/07 05:46:36;;;;;;;27.43;18.67;;;;;;;5.45;80.87;101077.63;1400200;93;22087;-86
2021/11/07 05:49:04;;;;;;;33.60;18.23;;;;;;;5.46;81.46;101084.55;1405498;93;21429;-86
2021/11/07 05:51:31;;;;;;;29.93;20.43;;;;;;;5.41;81.66;101087.48;1381927;94;22312;-87
2021/11/07 05:53:59;;;;;;;26.60;18.40;;;;;;;5.41;81.46;101083.06;1399660;93;23037;-87
2021/11/07 05:56:28;;;;;;;25.73;16.97;;;;;;;5.52;81.65;101084.14;1375257;94;22255;-87
2021/11/07 05:58:55;;;;;;;29.27;17.83;;;;;;;5.52;81.65;101084.14;1391433;93;21289;-86
2021/11/07 06:01:25;;;;;;;27.33;16.83;;;;;;;5.50;81.64;101088.67;1399749;93;22132;-87
2021/11/07 06:03:53;;;;;;;25.52;17.85;;;;;;;5.47;81.85;101101.97;1396330;93;23095;-87
2021/11/07 06:06:20;;;;;;;29.30;20.10;;;;;;;5.49;81.57;101102.72;1395714;93;21339;-90
2021/11/07 06:08:48;;;;;;;29.13;18.77;;;;;;;5.49;81.57;101102.72;1399862;94;21451;-91
2021/11/07 06:11:16;;;;;;;27.27;17.30;;;;;;;5.54;81.63;101097.55;1386112;94;23095;-91
2021/11/07 06:13:44;;;;;;;25.63;16.93;;;;;;;5.52;81.95;101088.92;1392293;94;22188;-90
2021/11/07 06:16:11;;;;;;;28.23;18.07;;;;;;;5.41;83.11;101093.57;1392251;93;22161;-92
2021/11/07 06:18:38;;;;;;;28.73;17.90;;;;;;;5.42;82.71;101088.68;1397186;93;21480;-92
2021/11/07 06:21:05;;;;;;;26.50;18.50;;;;;;;5.49;82.17;101093.53;1393701;94;23345;-90
2021/11/07 06:23:33;;;;;;;26.00;17.83;;;;;;;5.53;82.81;101091.94;1388994;94;21392;-91
2021/11/07 06:26:02;;;;;;;36.23;20.57;;;;;;;5.41;85.80;101087.01;1392011;93;21421;-90
2021/11/07 06:28:30;;;;;;;30.57;22.27;;;;;;;5.42;84.72;101124.59;1389617;94;22203;-88
2021/11/07 06:31:03;;;;;;;28.97;19.83;;;;;;;5.37;85.33;101114.38;1398368;93;22120;-88
2021/11/07 06:33:27;;;;;;;29.60;19.50;;;;;;;5.35;86.59;101099.22;1412444;93;23219;-88
2021/11/07 06:35:55;;;;;;;30.50;20.60;;;;;;;5.39;85.09;101089.35;1400864;93;21421;-92
2021/11/07 06:38:23;;;;;;;30.37;20.87;;;;;;;5.51;84.72;101106.94;1397212;93;22149;-88
2021/11/07 06:40:51;;;;;;;26.20;18.07;;;;;;;5.51;84.72;101106.94;1400877;93;23747;-88
2021/11/07 06:43:18;;;;;;;31.67;18.83;;;;;;;5.59;84.46;101109.08;1405335;93;21450;-87
2021/11/07 06:45:45;;;;;;;32.73;21.47;;;;;;;5.62;85.69;101098.37;1378962;93;21547;-87
2021/11/07 06:48:13;;;;;;;33.83;19.70;;;;;;;5.68;85.03;101107.17;1403158;93;22289;-87
2021/11/07 06:50:40;;;;;;;26.73;18.30;;;;;;;5.69;86.41;101110.63;1397806;93;22186;-87
2021/11/07 06:53:08;;;;;;;34.13;21.73;;;;;;;5.62;85.79;101127.27;1403645;93;21348;-87
2021/11/07 06:55:35;;;;;;;30.13;20.07;;;;;;;5.62;85.79;101127.27;1378776;93;21363;-85
2021/11/07 06:58:03;;;;;;;30.13;20.20;;;;;;;5.62;86.97;101114.13;1398798;93;21340;-88
2021/11/07 07:00:30;;;;;;;25.57;18.67;;;;;;;5.62;86.08;101114.13;1402633;93;21399;-87
2021/11/07 07:02:58;;;;;;;32.97;19.23;;;;;;;5.69;86.61;101121.97;1396681;93;21511;-87
2021/11/07 07:05:25;;;;;;;29.83;19.10;;;;;;;5.67;86.99;101125.19;1397926;93;22404;-87
2021/11/07 07:08:06;;;;;;;30.67;19.43;;;;;;;5.59;87.67;101142.74;1400507;93;21347;-87
2021/11/07 07:10:29;;;;;;;28.53;18.80;;;;;;;5.56;87.37;101151.30;1402988;93;23323;-87
2021/11/07 07:13:05;;;;;;;38.53;20.80;;;;;;;5.52;88.51;101154.56;1402035;93;21480;-87
2021/11/07 07:15:43;;;;;;;31.80;19.27;;;;;;;5.52;88.51;101154.56;1396619;93;21612;-87
2021/11/07 07:23:28;;;;;;;27.17;19.17;;;;;;;5.52;88.16;101121.74;1406480;93;23431;-89
2021/11/07 07:26:11;;;;;;;26.53;18.00;;;;;;;5.56;87.94;101125.03;1397991;93;21547;-89
2021/11/07 07:28:41;;;;;;;31.17;20.43;;;;;;;5.56;87.59;101132.91;1397172;93;23311;-89
2021/11/07 07:33:50;;;;;;;26.33;18.83;;;;;;;5.53;87.88;101142.30;1401680;93;21363;-87
2021/11/07 07:36:15;;;;;;;26.83;19.40;;;;;;;5.54;87.27;101139.56;1397544;93;22226;-88
2021/11/07 07:38:42;;;;;;;29.63;20.27;;;;;;;5.56;87.54;101143.42;1395811;93;21505;-88
2021/11/07 07:41:10;;;;;;;26.87;18.83;;;;;;;5.61;87.69;101132.13;1406533;93;22127;-88
2021/11/07 07:43:39;;;;;;;32.57;21.70;;;;;;;5.65;87.66;101125.75;1393947;91;21502;-88
2021/11/07 07:46:11;;;;;;;30.43;20.23;;;;;;;5.70;87.58;101119.73;1402516;92;22424;-90
2021/11/07 07:48:44;;;;;;;27.33;18.60;;;;;;;5.77;87.68;101119.70;1400251;93;21555;-91
2021/11/07 07:51:16;;;;;;;27.07;19.83;;;;;;;5.88;87.22;101112.44;1409105;93;22257;-90
2021/11/07 07:53:45;;;;;;;29.17;19.60;;;;;;;5.96;87.36;101096.21;1398178;93;22338;-90
2021/11/07 07:56:13;;;;;;;28.33;18.93;;;;;;;6.00;87.42;101096.37;1398372;93;21437;-90
2021/11/07 07:58:41;;;;;;;30.03;18.60;;;;;;;6.07;86.86;101095.00;1404995;93;21421;-89
2021/11/07 08:01:09;;;;;;;31.37;20.70;;;;;;;6.18;86.60;101092.50;1399644;93;21458;-88
2021/11/07 08:03:37;;;;;;;29.17;20.83;;;;;;;6.25;86.45;101078.02;1403545;93;21400;-88
2021/11/07 08:06:04;;;;;;;30.63;20.77;;;;;;;6.31;86.38;101081.53;1383635;93;21510;-88
2021/11/07 08:08:32;;;;;;;28.03;20.47;;;;;;;6.32;86.24;101088.95;1405304;93;21354;-90
2021/11/07 08:10:59;;;;;;;29.83;20.60;;;;;;;6.29;85.68;101083.42;1399907;93;21466;-90
2021/11/07 08:13:26;;;;;;;26.90;19.60;;;;;;;6.32;86.03;101073.17;1405836;93;21436;-89
2021/11/07 08:15:54;;;;;;;25.03;18.63;;;;;;;6.32;86.13;101066.59;1412731;93;21378;-88
2021/11/07 08:18:21;;;;;;;28.93;21.17;;;;;;;6.32;85.58;101052.97;1404585;93;21437;-89
2021/11/07 08:20:49;;;;;;;72.40;25.30;;;;;;;6.40;85.90;101045.05;1408373;93;21415;-91
2021/11/07 08:23:21;;;;;;;36.17;20.13;;;;;;;6.49;86.47;101028.62;1394177;93;21399;-89
2021/11/07 08:25:46;;;;;;;30.17;21.97;;;;;;;6.56;86.29;101015.44;1403468;93;21435;-90
2021/11/07 08:28:16;;;;;;;33.87;19.77;;;;;;;6.68;86.22;101005.36;1388937;93;22838;-89
2021/11/07 08:30:44;;;;;;;26.03;20.20;;;;;;;6.77;85.92;101009.97;1391988;93;21473;-89
2021/11/07 08:33:11;;;;;;;33.13;22.73;;;;;;;6.82;85.66;100991.68;1402108;92;22382;-90
2021/11/07 08:35:42;;;;;;;31.27;22.97;;;;;;;6.84;85.73;100970.06;1415649;91;22368;-91
2021/11/07 08:38:18;;;;;;;30.48;21.93;;;;;;;6.85;86.34;100963.38;1400171;92;21392;-90
2021/11/07 08:40:49;;;;;;;33.93;25.13;;;;;;;6.86;86.02;100961.59;1359836;94;21550;-90
2021/11/07 09:05:14;;;;;;;35.47;23.17;;;;;;;7.00;87.38;100989.06;1396571;94;21518;-90
2021/11/07 09:10:28;;;;;;;40.80;24.37;;;;;;;7.00;86.81;100981.17;1378291;95;20302;-89
2021/11/07 09:12:51;;;;;;;32.17;23.07;;;;;;;7.01;87.54;100999.95;1382287;93;21575;-89
2021/11/07 09:15:22;;;;;;;33.70;22.47;;;;;;;6.96;87.10;101031.01;1420984;92;21340;-88
2021/11/07 09:17:49;;;;;;;28.50;20.53;;;;;;;7.00;86.66;101053.55;1407256;92;21429;-89
2021/11/07 09:20:25;;;;;;;29.67;20.03;;;;;;;7.05;87.04;101038.72;1375575;94;21576;-88
2021/11/07 09:22:55;;;;;;;30.43;22.43;;;;;;;7.07;87.01;101014.45;1389078;91;23422;-88
2021/11/07 09:25:25;;;;;;;37.03;23.43;;;;;;;7.13;86.71;100999.05;1404056;91;21429;-88
2021/11/07 09:27:59;;;;;;;31.97;22.73;;;;;;;7.19;86.59;100994.69;1411613;91;21428;-88
2021/11/07 09:30:43;;;;;;;32.30;21.87;;;;;;;7.23;86.46;100992.17;1404918;92;21406;-88
2021/11/07 09:33:10;;;;;;;32.93;22.27;;;;;;;7.31;86.39;100992.94;1408560;91;21405;-88
2021/11/07 09:36:16;;;;;;;37.93;24.27;;;;;;;7.39;86.12;100993.22;1404355;91;21414;-90
2021/11/07 09:38:08;;;;;;;35.60;25.40;;;;;;;7.47;85.88;100986.05;1400945;91;21591;-91
2021/11/07 09:40:37;;;;;;;39.23;26.00;;;;;;;7.51;85.71;100970.40;1396373;91;22396;-91
2021/11/07 09:48:40;;;;;;;31.10;22.67;;;;;;;7.49;85.55;100974.09;1398990;94;21533;-91
2021/11/07 09:51:11;;;;;;;30.27;22.00;;;;;;;7.51;85.42;100957.23;1394333;92;21428;-89
2021/11/07 09:53:34;;;;;;;30.30;22.73;;;;;;;7.51;85.69;100944.06;1401792;90;21421;-88
2021/11/07 09:56:02;;;;;;;36.23;26.13;;;;;;;7.52;85.81;100935.19;1403996;92;21488;-88
2021/11/07 09:58:29;;;;;;;35.50;25.43;;;;;;;7.53;85.72;100934.23;1399198;92;21641;-88
2021/11/07 10:00:58;;;;;;;37.43;25.80;;;;;;;7.58;86.00;100918.92;1403896;92;21421;-91
2021/11/07 10:03:26;;;;;;;43.67;32.03;;;;;;;7.64;86.15;100913.66;1378507;93;21347;-88
2021/11/07 10:05:55;;;;;;;42.10;30.13;;;;;;;7.72;86.01;100913.92;1400552;93;21518;-88
2021/11/07 10:08:25;;;;;;;35.90;25.10;;;;;;;7.78;85.68;100918.72;1413457;92;21481;-89
2021/11/07 10:11:03;;;;;;;30.27;24.17;;;;;;;7.86;85.62;100922.93;1420643;91;21465;-89
2021/11/07 10:13:32;;;;;;;35.47;23.53;;;;;;;7.90;85.34;100913.81;1414877;92;22497;-90
2021/11/07 10:16:10;;;;;;;35.93;25.23;;;;;;;7.94;85.02;100911.81;1404240;90;21429;-90
2021/11/07 10:18:59;;;;;;;30.23;22.67;;;;;;;8.00;84.91;100903.42;1409555;92;21421;-90
2021/11/07 10:21:28;;;;;;;34.40;22.30;;;;;;;7.94;84.64;100889.41;1400459;93;21444;-85
2021/11/07 10:24:10;;;;;;;30.40;21.60;;;;;;;7.94;85.03;100890.72;1399513;93;21435;-85
2021/11/07 10:26:41;;;;;;;30.93;21.20;;;;;;;7.96;85.16;100870.33;1401518;93;21374;-85
2021/11/07 10:29:11;;;;;;;28.53;19.73;;;;;;;7.98;85.03;100875.02;1398323;93;22670;-85
2021/11/07 10:39:42;;;;;;;25.60;19.70;;;;;;;8.06;85.21;100858.13;1404722;93;22331;-82
2021/11/07 10:42:17;;;;;;;26.33;19.33;;;;;;;8.08;85.00;100857.50;1397984;93;21959;-86
2021/11/07 10:45:04;;;;;;;26.27;18.57;;;;;;;8.08;84.89;100871.17;1401889;93;21562;-86
2021/11/07 10:53:14;;;;;;;32.53;22.55;;;;;;;7.98;85.08;100859.20;1406363;92;21398;-89
2021/11/07 10:55:53;;;;;;;32.83;23.77;;;;;;;8.00;85.24;100855.11;1413780;92;22270;-91
2021/11/07 10:58:33;;;;;;;34.43;22.47;;;;;;;8.00;85.28;100853.79;1417107;92;21590;-89
2021/11/07 11:01:06;;;;;;;23.57;16.73;;;;;;;8.01;85.38;100851.05;1413216;92;21582;-89
2021/11/07 11:03:47;;;;;;;27.53;21.40;;;;;;;8.05;85.49;100831.87;1409932;92;21353;-89
2021/11/07 11:06:15;;;;;;;34.67;22.85;;;;;;;8.13;85.58;100825.03;1410439;92;22232;-89
2021/11/07 11:08:52;;;;;;;34.93;25.17;;;;;;;8.23;85.46;100830.42;1414750;92;21384;-88
2021/11/07 11:14:12;;;;;;;31.63;24.00;;;;;;;8.34;85.31;100818.99;1416865;92;21562;-87
2021/11/07 11:19:52;;;;;;;28.50;22.02;;;;;;;8.48;85.52;100826.66;1399745;92;21466;-88
2021/11/07 11:27:59;;;;;;;45.70;34.57;;;;;;;8.44;85.14;100825.24;1405246;93;21346;-84
2021/11/07 11:30:42;;;;;;;29.63;21.00;;;;;;;8.43;85.01;100818.30;1412597;93;21627;-85
2021/11/07 11:33:10;;;;;;;35.00;24.90;;;;;;;8.50;84.94;100819.47;1405201;93;21708;-85
2021/11/07 11:39:08;;;;;;;50.70;32.47;;;;;;;8.56;84.69;100812.86;1350164;96;21571;-85
2021/11/07 11:43:37;;;;;;;24.20;16.97;;;;;;;8.65;84.56;100809.46;1364395;96;22268;-84
2021/11/07 11:46:06;;;;;;;20.33;16.10;;;;;;;8.70;84.62;100808.61;1363318;96;21508;-84
2021/11/07 12:00:27;;;;;;;21.70;16.40;;;;;;;9.10;82.95;100780.70;1398862;93;21540;-84
2021/11/07 12:05:55;;;;;;;23.23;16.23;;;;;;;9.20;82.26;100786.37;1372689;98;21707;-84
2021/11/07 12:11:23;;;;;;;21.23;16.93;;;;;;;9.23;81.31;100786.11;1359800;95;21399;-84
2021/11/07 12:16:38;;;;;;;24.97;17.23;;;;;;;9.15;80.92;100774.52;1367487;95;21391;-85
2021/11/07 12:19:10;;;;;;;23.77;16.43;;;;;;;9.16;81.18;100776.22;1392060;93;21386;-83
2021/11/07 12:24:24;;;;;;;20.77;16.10;;;;;;;9.26;81.39;100762.11;1399529;88;22817;-92
2021/11/07 12:26:53;;;;;;;18.10;14.73;;;;;;;9.40;81.46;100756.94;1416153;91;22283;-92
2021/11/07 12:29:39;;;;;;;21.47;14.10;;;;;;;9.50;81.42;100758.33;1406846;92;21512;-88
2021/11/07 12:32:07;;;;;;;19.97;15.57;;;;;;;9.56;81.09;100758.28;1416470;91;22339;-90
2021/11/07 12:35:23;;;;;;;20.17;15.77;;;;;;;9.61;80.98;100760.88;1435064;91;22403;-90
2021/11/07 12:41:06;;;;;;;33.53;16.73;;;;;;;9.73;80.29;100751.53;1429712;91;21334;-92
2021/11/07 12:43:38;;;;;;;21.13;16.87;;;;;;;9.78;80.15;100752.80;1426997;88;22383;-93
2021/11/07 12:49:18;;;;;;;20.30;13.63;;;;;;;9.76;79.17;100753.41;1447256;89;21508;-89
2021/11/07 12:51:54;;;;;;;21.10;14.97;;;;;;;9.64;78.39;100753.17;1444828;90;22286;-91
2021/11/07 12:54:30;;;;;;;17.37;14.17;;;;;;;9.60;78.72;100743.33;1437602;89;21435;-89
2021/11/07 12:57:11;;;;;;;19.30;14.97;;;;;;;9.61;78.90;100733.59;1446655;90;21524;-88
2021/11/07 12:59:46;;;;;;;21.90;16.40;;;;;;;9.61;78.82;100726.52;1440725;89;22299;-91
2021/11/07 13:02:32;;;;;;;21.03;16.03;;;;;;;9.49;78.41;100732.85;1446981;90;21369;-90
2021/11/07 13:05:07;;;;;;;18.77;13.50;;;;;;;9.42;78.61;100729.91;1417179;89;21362;-88
2021/11/07 13:07:44;;;;;;;23.77;16.03;;;;;;;9.34;78.70;100732.37;1418996;91;21664;-89
2021/11/07 13:10:24;;;;;;;19.67;14.90;;;;;;;9.27;78.83;100736.53;1428687;90;21607;-89
2021/11/07 13:13:05;;;;;;;18.15;14.50;;;;;;;9.24;78.98;100723.59;1449602;89;21519;-89
2021/11/07 13:29:54;;;;;;;21.50;15.40;;;;;;;9.35;79.59;100698.88;1442189;89;21465;-91
2021/11/07 13:35:19;;;;;;;19.83;14.63;;;;;;;9.32;79.69;100711.02;1420458;92;22371;-94
2021/11/07 13:38:14;;;;;;;23.37;15.67;;;;;;;9.31;79.62;100708.88;1398843;93;21527;-93
2021/11/07 13:40:41;;;;;;;23.53;16.87;;;;;;;9.32;79.60;100711.88;1409500;92;21409;-92
2021/11/07 13:43:17;;;;;;;26.97;19.57;;;;;;;9.33;79.68;100706.94;1416658;92;21328;-92
2021/11/07 13:45:52;;;;;;;25.90;18.87;;;;;;;9.33;79.72;100706.94;1417860;92;21950;-91
2021/11/07 13:48:29;;;;;;;33.03;22.60;;;;;;;9.36;79.80;100693.47;1389197;93;21423;-92
2021/11/07 13:50:57;;;;;;;27.90;20.40;;;;;;;9.36;79.95;100690.00;1409008;93;21425;-92
2021/11/07 13:53:30;;;;;;;27.53;19.57;;;;;;;9.29;79.78;100672.50;1416262;93;21401;-92
2021/11/07 13:56:01;;;;;;;29.83;20.70;;;;;;;9.24;79.96;100674.73;1413493;91;21395;-91